createdAt,value
2019-05-19T00:01:50.525Z,11.91
2019-05-19T00:04:21.359Z,11.89
2019-05-19T00:06:52.197Z,11.88
2019-05-19T00:09:24.092Z,11.89
2019-05-19T00:11:54.775Z,11.87
2019-05-19T00:14:26.511Z,11.86
2019-05-19T00:16:57.499Z,11.92
2019-05-19T00:19:30.517Z,11.87
2019-05-19T00:22:01.517Z,11.93
2019-05-19T00:24:34.705Z,11.92
2019-05-19T00:27:05.393Z,11.89
2019-05-19T00:29:36.149Z,11.84
2019-05-19T00:32:07.640Z,11.85
2019-05-19T00:34:40.054Z,11.85
2019-05-19T00:37:10.928Z,11.87
2019-05-19T00:39:41.719Z,11.89
2019-05-19T00:42:12.703Z,11.88
2019-05-19T00:44:43.506Z,11.86
2019-05-19T00:47:14.987Z,11.87
2019-05-19T00:49:46.528Z,11.87
2019-05-19T00:52:17.471Z,11.89
2019-05-19T00:54:48.912Z,11.88
2019-05-19T00:57:20.206Z,11.83
2019-05-19T00:59:52.505Z,11.79
2019-05-19T01:02:23.923Z,11.76
2019-05-19T01:04:56.123Z,11.76
2019-05-19T01:07:26.962Z,11.75
2019-05-19T01:09:57.762Z,11.74
2019-05-19T01:12:28.519Z,11.74
2019-05-19T01:14:59.328Z,11.71
2019-05-19T01:17:30.458Z,11.69
2019-05-19T01:20:01.571Z,11.72
2019-05-19T01:22:32.326Z,11.71
2019-05-19T01:25:03.066Z,11.68
2019-05-19T01:27:34.675Z,11.62
2019-05-19T01:30:06.127Z,11.56
2019-05-19T01:32:37.023Z,11.63
2019-05-19T01:35:07.928Z,11.58
2019-05-19T01:37:38.824Z,11.61
2019-05-19T01:40:10.125Z,11.64
2019-05-19T01:42:41.141Z,11.67
2019-05-19T01:45:12.875Z,11.66
2019-05-19T01:47:43.702Z,11.63
2019-05-19T01:50:18.518Z,11.63
2019-05-19T01:52:52.146Z,11.64
2019-05-19T01:55:22.977Z,11.63
2019-05-19T01:57:54.578Z,11.63
2019-05-19T02:00:25.268Z,11.62
2019-05-19T02:02:56.130Z,11.62
2019-05-19T02:05:27.038Z,11.61
2019-05-19T02:07:57.746Z,11.60
2019-05-19T02:10:28.455Z,11.56
2019-05-19T02:12:59.108Z,11.53
2019-05-19T02:15:33.849Z,11.46
2019-05-19T02:18:04.673Z,11.42
2019-05-19T02:20:35.286Z,11.46
2019-05-19T02:23:06.032Z,11.51
2019-05-19T02:25:37.892Z,11.51
2019-05-19T02:28:08.485Z,11.54
2019-05-19T02:30:39.519Z,11.48
2019-05-19T02:33:10.254Z,11.48
2019-05-19T02:35:42.871Z,11.49
2019-05-19T02:38:13.491Z,11.44
2019-05-19T02:40:48.144Z,11.47
2019-05-19T02:43:20.720Z,11.48
2019-05-19T02:45:53.133Z,11.46
2019-05-19T02:48:27.342Z,11.46
2019-05-19T02:51:00.197Z,11.47
2019-05-19T02:53:33.084Z,11.45
2019-05-19T02:56:05.089Z,11.43
2019-05-19T02:58:36.167Z,11.42
2019-05-19T03:01:06.741Z,11.41
2019-05-19T03:03:37.725Z,11.42
2019-05-19T03:06:10.225Z,11.43
2019-05-19T03:08:40.971Z,11.43
2019-05-19T03:11:11.736Z,11.42
2019-05-19T03:13:42.536Z,11.48
2019-05-19T03:16:13.455Z,11.43
2019-05-19T03:18:45.008Z,11.44
2019-05-19T03:21:15.671Z,11.44
2019-05-19T03:23:46.559Z,11.44
2019-05-19T03:26:18.154Z,11.47
2019-05-19T03:28:48.756Z,11.48
2019-05-19T03:31:26.851Z,11.53
2019-05-19T03:33:57.776Z,11.57
2019-05-19T03:36:28.838Z,11.57
2019-05-19T03:38:59.427Z,11.60
2019-05-19T03:41:30.488Z,11.71
2019-05-19T03:44:01.539Z,11.68
2019-05-19T03:46:32.734Z,11.68
2019-05-19T03:49:03.320Z,11.67
2019-05-19T03:51:34.275Z,11.65
2019-05-19T03:54:05.478Z,11.61
2019-05-19T03:56:36.069Z,11.59
2019-05-19T03:59:07.109Z,11.61
2019-05-19T04:01:37.646Z,11.59
2019-05-19T04:04:08.375Z,11.59
2019-05-19T04:06:38.939Z,11.54
2019-05-19T04:09:09.907Z,11.56
2019-05-19T04:11:41.723Z,11.55
2019-05-19T04:14:12.404Z,11.55
2019-05-19T04:16:43.111Z,11.62
2019-05-19T04:19:13.854Z,11.60
2019-05-19T04:21:48.879Z,11.67
2019-05-19T04:24:17.058Z,11.71
2019-05-19T04:26:47.912Z,11.77
2019-05-19T04:29:18.500Z,11.81
2019-05-19T04:31:49.085Z,11.94
2019-05-19T04:34:19.662Z,12.06
2019-05-19T04:36:50.601Z,12.12
2019-05-19T04:39:21.210Z,12.21
2019-05-19T04:41:51.875Z,12.29
2019-05-19T04:44:22.419Z,12.34
2019-05-19T04:46:53.410Z,12.39
2019-05-19T04:49:24.028Z,12.46
2019-05-19T04:52:06.019Z,12.51
2019-05-19T04:54:27.372Z,12.59
2019-05-19T04:56:58.396Z,12.69
2019-05-19T04:59:29.239Z,12.75
2019-05-19T05:02:00.364Z,12.81
2019-05-19T05:04:31.230Z,12.84
2019-05-19T05:07:04.506Z,12.91
2019-05-19T05:09:35.946Z,12.90
2019-05-19T05:12:06.765Z,12.96
2019-05-19T05:14:37.481Z,12.98
2019-05-19T05:17:08.073Z,13.01
2019-05-19T05:19:38.807Z,13.04
2019-05-19T05:22:21.724Z,13.09
2019-05-19T05:24:43.976Z,13.16
2019-05-19T05:27:14.992Z,13.23
2019-05-19T05:29:46.828Z,13.28
2019-05-19T05:32:17.792Z,13.31
2019-05-19T05:34:48.909Z,13.39
2019-05-19T05:37:20.088Z,13.44
2019-05-19T05:39:53.891Z,13.63
2019-05-19T05:42:25.034Z,13.73
2019-05-19T05:44:56.192Z,13.88
2019-05-19T05:47:52.036Z,14.02
2019-05-19T05:50:22.675Z,14.12
2019-05-19T05:52:53.593Z,14.21
2019-05-19T05:55:24.487Z,14.32
2019-05-19T05:57:55.304Z,14.41
2019-05-19T06:00:26.017Z,14.34
2019-05-19T06:02:57.299Z,14.38
2019-05-19T06:05:27.829Z,14.51
2019-05-19T06:07:59.580Z,14.52
2019-05-19T06:10:31.406Z,14.62
2019-05-19T06:13:02.049Z,14.74
2019-05-19T06:15:32.719Z,14.84
2019-05-19T06:18:03.830Z,14.90
2019-05-19T06:20:34.489Z,14.90
2019-05-19T06:23:05.197Z,14.94
2019-05-19T06:25:35.824Z,14.97
2019-05-19T06:28:06.835Z,14.90
2019-05-19T06:30:37.454Z,14.86
2019-05-19T06:33:08.056Z,14.86
2019-05-19T06:35:38.626Z,14.92
2019-05-19T06:38:11.947Z,14.93
2019-05-19T06:40:42.580Z,14.85
2019-05-19T06:43:13.631Z,14.86
2019-05-19T06:45:46.077Z,14.83
2019-05-19T06:48:17.378Z,14.89
2019-05-19T06:50:48.144Z,14.94
2019-05-19T06:53:19.120Z,14.97
2019-05-19T06:55:50.716Z,15.06
2019-05-19T06:58:21.690Z,15.30
2019-05-19T07:00:52.389Z,15.58
2019-05-19T07:03:23.492Z,15.71
2019-05-19T07:05:54.154Z,15.81
2019-05-19T07:08:25.058Z,16.04
2019-05-19T07:10:55.909Z,16.03
2019-05-19T07:13:26.544Z,15.94
2019-05-19T07:15:57.327Z,15.89
2019-05-19T07:18:29.399Z,15.94
2019-05-19T07:21:00.164Z,15.72
2019-05-19T07:23:30.820Z,15.70
2019-05-19T07:26:03.222Z,15.63
2019-05-19T07:28:35.383Z,15.65
2019-05-19T07:31:06.278Z,15.67
2019-05-19T07:33:37.066Z,15.89
2019-05-19T07:36:08.422Z,16.16
2019-05-19T07:38:39.093Z,16.33
2019-05-19T07:41:11.019Z,16.47
2019-05-19T07:43:41.937Z,16.61
2019-05-19T07:46:12.903Z,16.64
2019-05-19T07:48:44.108Z,16.70
2019-05-19T07:51:14.781Z,16.77
2019-05-19T07:53:45.818Z,16.54
2019-05-19T07:56:16.493Z,16.36
2019-05-19T07:58:47.638Z,16.48
2019-05-19T08:01:18.420Z,16.65
2019-05-19T08:03:49.966Z,16.51
2019-05-19T08:06:28.045Z,16.40
2019-05-19T08:09:00.002Z,16.47
2019-05-19T08:11:30.909Z,16.49
2019-05-19T08:14:02.098Z,16.51
2019-05-19T08:16:32.892Z,16.72
2019-05-19T08:19:03.901Z,16.72
2019-05-19T08:21:34.784Z,16.82
2019-05-19T08:24:05.597Z,16.99
2019-05-19T08:26:36.237Z,17.26
2019-05-19T08:29:07.853Z,17.52
2019-05-19T08:31:39.089Z,17.87
2019-05-19T08:34:10.612Z,18.21
2019-05-19T08:36:41.247Z,18.97
2019-05-19T08:39:14.073Z,19.41
2019-05-19T08:41:44.816Z,19.76
2019-05-19T08:44:18.158Z,19.68
2019-05-19T08:46:50.180Z,19.36
2019-05-19T08:49:20.795Z,18.60
2019-05-19T08:51:51.498Z,19.28
2019-05-19T08:54:22.058Z,19.49
2019-05-19T08:56:54.186Z,19.29
2019-05-19T08:59:24.936Z,19.91
2019-05-19T09:01:58.018Z,20.78
2019-05-19T09:04:32.360Z,22.01
2019-05-19T09:07:03.211Z,23.55
2019-05-19T09:09:34.539Z,24.20
2019-05-19T09:12:05.173Z,23.52
2019-05-19T09:14:36.105Z,23.42
2019-05-19T09:17:06.765Z,22.23
2019-05-19T09:19:38.123Z,20.60
2019-05-19T09:22:09.660Z,19.55
2019-05-19T09:24:40.295Z,19.50
2019-05-19T09:27:12.222Z,20.14
2019-05-19T09:29:43.882Z,20.73
2019-05-19T09:32:15.579Z,20.98
2019-05-19T09:34:46.791Z,21.60
2019-05-19T09:37:17.923Z,22.43
2019-05-19T09:39:49.212Z,21.68
2019-05-19T09:42:19.848Z,21.25
2019-05-19T09:44:50.585Z,21.71
2019-05-19T09:47:22.142Z,21.41
2019-05-19T09:49:54.020Z,21.86
2019-05-19T09:52:25.250Z,22.98
2019-05-19T09:54:57.311Z,23.24
2019-05-19T09:57:31.054Z,22.56
2019-05-19T10:00:01.727Z,22.63
2019-05-19T10:02:32.487Z,23.07
2019-05-19T10:05:04.088Z,23.04
2019-05-19T10:07:39.500Z,23.93
2019-05-19T10:10:19.778Z,23.04
2019-05-19T10:12:50.653Z,22.45
2019-05-19T10:15:25.427Z,23.85
2019-05-19T10:18:00.170Z,23.60
2019-05-19T10:20:32.213Z,22.16
2019-05-19T10:23:02.995Z,20.85
2019-05-19T10:25:36.130Z,20.29
2019-05-19T10:28:07.172Z,20.14
2019-05-19T10:30:43.514Z,19.82
2019-05-19T10:33:45.005Z,19.58
2019-05-19T10:36:18.391Z,19.82
2019-05-19T10:38:49.827Z,20.04
2019-05-19T10:41:22.078Z,20.11
2019-05-19T10:44:00.870Z,20.00
2019-05-19T10:46:31.651Z,20.11
2019-05-19T10:49:17.258Z,21.05
2019-05-19T10:51:47.909Z,21.26
2019-05-19T10:54:19.543Z,20.90
2019-05-19T10:56:51.113Z,21.57
2019-05-19T10:59:26.251Z,22.25
2019-05-19T11:02:04.677Z,22.04
2019-05-19T11:04:37.262Z,22.16
2019-05-19T11:07:08.851Z,22.00
2019-05-19T11:09:39.593Z,21.76
2019-05-19T11:12:10.782Z,21.44
2019-05-19T11:14:44.249Z,21.19
2019-05-19T11:17:14.954Z,21.07
2019-05-19T11:19:45.579Z,20.84
2019-05-19T11:22:16.946Z,20.61
2019-05-19T11:24:50.694Z,20.96
2019-05-19T11:27:23.243Z,21.59
2019-05-19T11:29:56.130Z,22.13
2019-05-19T11:32:27.095Z,22.52
2019-05-19T11:35:02.058Z,23.07
2019-05-19T11:37:34.297Z,22.54
2019-05-19T11:40:05.672Z,21.37
2019-05-19T11:42:36.320Z,21.25
2019-05-19T11:45:07.731Z,22.76
2019-05-19T11:47:38.642Z,23.50
2019-05-19T11:50:10.592Z,23.04
2019-05-19T11:52:41.856Z,22.34
2019-05-19T11:55:13.536Z,20.69
2019-05-19T11:57:46.072Z,20.15
2019-05-19T12:00:18.151Z,19.77
2019-05-19T12:02:48.963Z,20.40
2019-05-19T12:05:20.798Z,20.66
2019-05-19T12:07:53.765Z,21.43
2019-05-19T12:10:24.504Z,21.55
2019-05-19T12:12:55.202Z,21.26
2019-05-19T12:15:25.881Z,21.04
2019-05-19T12:17:56.699Z,20.98
2019-05-19T12:20:27.303Z,21.24
2019-05-19T12:22:58.063Z,21.09
2019-05-19T12:25:29.070Z,21.56
2019-05-19T12:27:59.766Z,21.99
2019-05-19T12:30:30.614Z,21.75
2019-05-19T12:33:01.255Z,21.44
2019-05-19T12:35:36.354Z,21.16
2019-05-19T12:38:07.179Z,21.03
2019-05-19T12:40:38.050Z,20.67
2019-05-19T12:43:09.083Z,20.69
2019-05-19T12:45:40.925Z,21.15
2019-05-19T12:48:12.297Z,22.71
2019-05-19T12:50:43.066Z,23.44
2019-05-19T12:53:14.188Z,22.56
2019-05-19T12:55:44.915Z,21.84
2019-05-19T12:58:15.987Z,22.27
2019-05-19T13:00:46.753Z,22.41
2019-05-19T13:03:17.422Z,22.58
2019-05-19T13:05:49.637Z,22.17
2019-05-19T13:08:20.409Z,21.87
2019-05-19T13:10:51.165Z,21.72
2019-05-19T13:13:22.092Z,21.81
2019-05-19T13:15:53.322Z,22.39
2019-05-19T13:18:24.437Z,24.97
2019-05-19T13:20:56.319Z,28.41
2019-05-19T13:23:27.165Z,29.51
2019-05-19T13:25:58.071Z,27.88
2019-05-19T13:28:28.864Z,28.00
2019-05-19T13:30:59.617Z,29.00
2019-05-19T13:33:30.666Z,28.98
2019-05-19T13:36:02.303Z,28.88
2019-05-19T13:38:33.033Z,27.05
2019-05-19T13:41:04.138Z,24.79
2019-05-19T13:43:35.110Z,23.49
2019-05-19T13:46:06.668Z,23.05
2019-05-19T13:48:37.526Z,22.43
2019-05-19T13:51:09.418Z,22.36
2019-05-19T13:53:40.876Z,23.20
2019-05-19T13:56:11.695Z,24.03
2019-05-19T13:58:42.683Z,23.79
2019-05-19T14:01:27.536Z,24.14
2019-05-19T14:03:46.973Z,24.73
2019-05-19T14:06:18.564Z,24.85
2019-05-19T14:08:49.249Z,24.59
2019-05-19T14:11:20.503Z,24.28
2019-05-19T14:13:51.362Z,23.92
2019-05-19T14:16:22.081Z,23.17
2019-05-19T14:18:54.183Z,22.46
2019-05-19T14:21:24.822Z,22.23
2019-05-19T14:23:55.698Z,21.89
2019-05-19T14:26:29.045Z,21.83
2019-05-19T14:28:59.757Z,21.72
2019-05-19T14:32:12.203Z,21.66
2019-05-19T14:35:13.929Z,21.80
2019-05-19T14:37:57.499Z,22.28
2019-05-19T14:40:58.166Z,23.27
2019-05-19T14:43:42.730Z,24.42
2019-05-19T14:46:33.048Z,24.75
2019-05-19T14:49:16.018Z,26.17
2019-05-19T14:51:49.775Z,26.47
2019-05-19T14:54:25.229Z,27.09
2019-05-19T14:56:55.767Z,27.51
2019-05-19T14:59:27.989Z,27.61
2019-05-19T15:01:58.932Z,27.36
2019-05-19T15:04:29.929Z,26.69
2019-05-19T15:07:01.419Z,25.57
2019-05-19T15:09:32.582Z,24.94
2019-05-19T15:12:06.064Z,24.63
2019-05-19T15:17:37.814Z,24.71
2019-05-19T15:20:09.248Z,24.94
2019-05-19T15:22:40.021Z,25.09
2019-05-19T15:25:10.707Z,25.69
2019-05-19T15:27:57.819Z,26.30
2019-05-19T15:30:23.237Z,27.40
2019-05-19T15:32:57.546Z,28.54
2019-05-19T15:35:28.562Z,28.24
2019-05-19T15:38:00.060Z,29.20
2019-05-19T15:40:30.879Z,28.35
2019-05-19T15:43:02.219Z,28.59
2019-05-19T15:45:33.378Z,27.10
2019-05-19T15:48:06.556Z,25.51
2019-05-19T15:50:38.589Z,24.44
2019-05-19T15:53:10.290Z,23.29
2019-05-19T15:55:41.342Z,23.38
2019-05-19T15:58:16.518Z,23.72
2019-05-19T16:00:45.871Z,23.49
2019-05-19T16:03:17.020Z,23.48
2019-05-19T16:05:47.857Z,23.52
2019-05-19T16:08:18.815Z,23.13
2019-05-19T16:10:49.409Z,23.20
2019-05-19T16:13:22.107Z,23.25
2019-05-19T16:15:55.333Z,23.15
2019-05-19T16:18:27.146Z,22.86
2019-05-19T16:20:57.719Z,22.98
2019-05-19T16:23:28.881Z,22.65
2019-05-19T16:25:59.596Z,22.69
2019-05-19T16:28:31.213Z,22.34
2019-05-19T16:31:03.362Z,22.13
2019-05-19T16:33:34.058Z,21.49
2019-05-19T16:36:07.873Z,21.13
2019-05-19T16:38:38.232Z,20.84
2019-05-19T16:41:09.653Z,20.37
2019-05-19T16:43:40.186Z,19.92
2019-05-19T16:46:12.428Z,19.66
2019-05-19T16:48:45.425Z,19.40
2019-05-19T16:51:16.755Z,18.89
2019-05-19T16:53:51.450Z,18.62
2019-05-19T16:56:24.388Z,18.47
2019-05-19T16:58:55.926Z,18.33
2019-05-19T17:01:27.269Z,18.11
2019-05-19T17:03:59.826Z,17.98
2019-05-19T17:06:31.658Z,18.01
2019-05-19T17:09:04.017Z,17.83
2019-05-19T17:11:37.440Z,17.78
2019-05-19T17:14:10.131Z,17.67
2019-05-19T17:16:43.086Z,17.61
2019-05-19T17:19:21.444Z,17.51
2019-05-19T17:21:52.924Z,17.42
2019-05-19T17:24:26.188Z,17.32
2019-05-19T17:26:59.627Z,17.25
2019-05-19T17:29:39.713Z,17.25
2019-05-19T17:32:12.655Z,17.17
2019-05-19T17:34:43.650Z,17.15
2019-05-19T17:37:14.416Z,17.19
2019-05-19T17:39:47.504Z,17.17
2019-05-19T17:42:20.407Z,17.07
2019-05-19T17:44:51.953Z,16.91
2019-05-19T17:47:22.614Z,16.75
2019-05-19T17:49:53.305Z,16.63
2019-05-19T17:52:24.678Z,16.56
2019-05-19T17:54:55.694Z,16.54
2019-05-19T17:57:30.085Z,16.53
2019-05-19T18:00:01.925Z,16.50
2019-05-19T18:02:33.335Z,16.43
2019-05-19T18:05:07.258Z,16.36
2019-05-19T18:07:38.997Z,16.35
2019-05-19T18:10:10.080Z,16.30
2019-05-19T18:12:42.037Z,16.21
2019-05-19T18:15:13.038Z,16.16
2019-05-19T18:17:47.009Z,16.11
2019-05-19T18:20:23.797Z,16.06
2019-05-19T18:22:59.876Z,16.03
2019-05-19T18:25:30.669Z,16.01
2019-05-19T18:28:01.709Z,15.99
2019-05-19T18:30:32.537Z,16.03
2019-05-19T18:33:03.964Z,16.06
2019-05-19T18:35:35.176Z,16.09
2019-05-19T18:38:10.282Z,16.08
2019-05-19T18:40:41.223Z,16.05
2019-05-19T18:43:12.851Z,15.99
2019-05-19T18:45:43.418Z,15.98
2019-05-19T18:48:15.747Z,15.99
2019-05-19T18:50:48.245Z,16.07
2019-05-19T18:53:21.361Z,16.07
2019-05-19T18:55:51.947Z,16.03
2019-05-19T18:58:24.051Z,16.02
2019-05-19T19:00:55.981Z,16.03
2019-05-19T19:03:29.149Z,16.01
2019-05-19T19:06:03.775Z,15.97
2019-05-19T19:08:38.059Z,15.94
2019-05-19T19:11:09.253Z,15.95
2019-05-19T19:13:42.322Z,15.90
2019-05-19T19:16:14.081Z,15.89
2019-05-19T19:18:45.153Z,15.89
2019-05-19T19:21:16.186Z,15.92
2019-05-19T19:23:46.997Z,15.95
2019-05-19T19:26:18.236Z,15.96
2019-05-19T19:28:50.298Z,15.96
2019-05-19T19:31:21.210Z,16.01
2019-05-19T19:33:52.570Z,16.04
2019-05-19T19:36:23.198Z,16.09
2019-05-19T19:38:54.153Z,16.04
2019-05-19T19:41:24.859Z,15.92
2019-05-19T19:43:55.674Z,15.82
2019-05-19T19:46:43.299Z,15.82
2019-05-19T19:49:15.291Z,15.82
2019-05-19T19:51:47.042Z,15.74
2019-05-19T19:54:17.714Z,15.65
2019-05-19T19:56:48.384Z,15.53
2019-05-19T19:59:21.654Z,15.44
2019-05-19T20:01:54.267Z,15.40
2019-05-19T20:04:25.474Z,15.41
2019-05-19T20:06:56.539Z,15.52
2019-05-19T20:09:27.504Z,15.53
2019-05-19T20:11:58.357Z,15.57
2019-05-19T20:14:32.271Z,15.51
2019-05-19T20:17:03.177Z,15.49
2019-05-19T20:19:33.786Z,15.45
2019-05-19T20:22:05.177Z,15.41
2019-05-19T20:24:37.627Z,15.37
2019-05-19T20:27:08.557Z,15.30
2019-05-19T20:29:39.288Z,15.26
2019-05-19T20:32:10.057Z,15.23
2019-05-19T20:34:41.600Z,15.26
2019-05-19T20:37:15.136Z,15.32
2019-05-19T20:39:45.067Z,15.28
2019-05-19T20:42:15.849Z,15.31
2019-05-19T20:44:47.314Z,15.33
2019-05-19T20:47:18.080Z,15.34
2019-05-19T20:49:52.104Z,15.32
2019-05-19T20:52:26.607Z,15.31
2019-05-19T20:54:58.162Z,15.28
2019-05-19T20:57:28.902Z,15.29
2019-05-19T21:00:12.213Z,15.26
2019-05-19T21:02:42.847Z,15.39
2019-05-19T21:05:14.339Z,15.34
2019-05-19T21:07:45.455Z,15.25
2019-05-19T21:10:16.432Z,15.08
2019-05-19T21:12:47.025Z,15.04
2019-05-19T21:15:17.862Z,14.73
2019-05-19T21:17:48.543Z,14.28
2019-05-19T21:20:19.437Z,13.95
2019-05-19T21:22:50.012Z,13.75
2019-05-19T21:25:23.003Z,13.56
2019-05-19T21:27:54.353Z,13.42
2019-05-19T21:30:25.479Z,13.34
2019-05-19T21:32:56.143Z,13.28
2019-05-19T21:35:26.772Z,13.22
2019-05-19T21:37:57.571Z,13.23
2019-05-19T21:54:48.219Z,13.18
2019-05-19T21:57:18.972Z,13.13
2019-05-19T21:59:49.605Z,13.10
2019-05-19T22:02:21.510Z,13.11
2019-05-19T22:04:52.133Z,13.10
2019-05-19T22:07:42.962Z,13.06
2019-05-19T22:10:13.856Z,13.07
2019-05-19T22:21:36.726Z,13.05
2019-05-19T22:27:44.201Z,13.06
2019-05-19T22:30:16.529Z,12.99
2019-05-19T22:32:47.141Z,12.95
2019-05-19T22:35:17.913Z,12.82
2019-05-19T22:37:48.965Z,12.76
2019-05-19T22:40:20.279Z,12.70
2019-05-19T22:42:54.281Z,12.66
2019-05-19T22:45:26.077Z,12.63
2019-05-19T22:47:56.857Z,12.60
2019-05-19T22:50:29.034Z,12.59
2019-05-19T22:52:59.608Z,12.59
2019-05-19T22:55:30.233Z,12.49
2019-05-19T22:58:00.816Z,12.46
2019-05-19T23:00:31.934Z,12.46
2019-05-19T23:03:02.573Z,12.49
2019-05-19T23:05:33.673Z,12.46
2019-05-19T23:08:04.726Z,12.46
2019-05-19T23:10:35.636Z,12.40
2019-05-19T23:13:08.270Z,12.36
2019-05-19T23:15:40.266Z,12.30
2019-05-19T23:18:11.013Z,12.24
2019-05-19T23:20:42.619Z,12.19
2019-05-19T23:23:13.984Z,12.14
2019-05-19T23:25:44.585Z,12.11
2019-05-19T23:28:16.685Z,12.10
2019-05-19T23:30:47.347Z,12.04
2019-05-19T23:33:18.549Z,11.97
2019-05-19T23:35:50.345Z,11.97
2019-05-19T23:38:21.572Z,11.95
2019-05-19T23:40:53.417Z,11.94
2019-05-19T23:43:24.345Z,11.92
2019-05-19T23:45:54.995Z,11.89
2019-05-19T23:48:25.644Z,11.91
2019-05-19T23:50:56.265Z,11.87
2019-05-19T23:53:27.177Z,11.83
2019-05-19T23:55:57.722Z,11.84
2019-05-19T23:58:28.431Z,11.83
